Terminal Aerodrome Forecast
Issued by NWS

Home | Current Version | Previous Version | Text Only | Print | Product List | Glossary On
Versions: 1 2 3 4 5 6 7 8 9 10 11 12 13 14 15 16 17 18
000
FTUS45 KFGZ 080540
TAFPRC
TAF
KPRC 080540Z 0806/0906 20005KT P6SM FEW120
     FM081700 21011G19KT P6SM SCT090
     FM090300 VRB05KT P6SM FEW110=

USA.gov is the U.S. government's official web portal to all federal, state and local government web resources and services.